Portada
METAR-TAF:

METAR-TAF

Aeroports :

Port Moresby, Papua Nova Guinea

latitud: 09-26S, longitud: 147-13E, altitud: 38 m

Observació

L'informe es va fer fa 1 hora i 2 minuts, a les 06:00 UTC
Vent 20 kt del Sud/Sud-Est
Temperatura 27°C
Humitat 74%
Pressió 1011 hPa
Visibilitat 10 km o més
Núvols disperses a una alçada de 3000 ft
calitja

METAR: AYPY 240600Z 16020KT 9999 HZ SCT030 27/22 Q1011

Hora: 17:02 (07:02 UTC)

Pronòstic

L'informe es va fer fa 9 hores i 2 minuts, a les 22:00 UTC
Pronòstic vàlid del 24 a les 00 UTC al 24 a les 24 UTC
Vent 12 kt del Sud/Sud-Est
Visibilitat 10 km o més
Núvols disperses a una alçada de 1800 ft
Cel ennuvolat a una alçada de 4000 ft

TAF: AYPY 232200Z 2400/2424 15012KT 9999 SCT018 BKN040

Observacions i pronòstics meteorològics de més de 4000 aeroports (METAR i TAF).

Les estacions disponibles són els punts grocs i vermells al mapa.

Posi el ratolí al punt desitjat per veure el nom de l'estació.

Feu clic per veure les observacions i els pronòstics meteorològics.

Per canviar el mapa: feu clic els botons verds amb una creu de color negre per apropar; al botó verd amb un guió per allunyar la imatge; o en les fletxes verdes per a mapes adjacents.


METAR-TAF: